ADDS METAR Data INFO
IDs: Format: Raw Decoded Include TAF

Data at: 1415 UTC 12 Dec 2017

KRSW 121353Z 16003KT 10SM CLR 14/09 A3011 RMK AO2 SLP192 T01390094
KRSW 121253Z 00000KT 10SM CLR 10/08 A3010 RMK AO2 SLP191 T01000083
KRSW 121153Z 00000KT 10SM CLR 09/08 A3010 RMK AO2 SLP190 T00890078 10094 20067 55004
KRSW 121053Z 00000KT 10SM CLR 08/08 A3009 RMK AO2 SLP188 T00780078
KRSW 120953Z 00000KT 10SM CLR 07/07 A3009 RMK AO2 SLP188 T00720072
KRSW 120853Z 07003KT 10SM CLR 07/07 A3011 RMK AO2 SLP194 T00670067 56016
KRSW 120808Z 00000KT 10SM CLR 07/07 A3011 RMK AO2 T00720072
KRSW 120753Z 00000KT 2SM BR FEW002 07/07 A3012 RMK AO2 SLP196 T00720072
KRSW 120708Z 00000KT 3SM BR CLR 07/07 A3013 RMK AO2 T00720072
KRSW 120658Z 00000KT 1 1/2SM BR CLR 07/07 A3013 RMK AO2 T00720072
KRSW 120653Z 00000KT 5SM BR CLR 08/08 A3014 RMK AO2 SLP203 T00780078
KRSW 120553Z 00000KT 10SM CLR 09/08 A3016 RMK AO2 SLP210 T00890083 10139 20083 57014
KRSW 120453Z 00000KT 10SM CLR 09/09 A3017 RMK AO2 SLP215 T00890089 401890050
KRSW 120353Z AUTO 00000KT 10SM CLR 09/08 A3019 RMK AO2 SLP219 T00940083
KRSW 120253Z AUTO 00000KT 10SM CLR 10/08 A3020 RMK AO2 SLP224 T01000083 51007
KRSW 120153Z AUTO 00000KT 10SM CLR 11/09 A3020 RMK AO2 SLP222 T01060094
KRSW 120053Z AUTO 00000KT 10SM CLR 12/08 A3019 RMK AO2 SLP220 T01220078
KRSW 112353Z AUTO 00000KT 10SM CLR 14/07 A3018 RMK AO2 SLP216 T01390067 10189 20139 53002
KRSW 112253Z AUTO 00000KT 10SM CLR 15/06 A3017 RMK AO2 SLP215 T01500056
KRSW 112153Z AUTO 33004KT 10SM CLR 17/05 A3017 RMK AO2 SLP213 T01720050
KRSW 112053Z AUTO 10SM CLR 18/05 A3017 RMK AO2 SLP214 T01830050 56017
KRSW 111953Z 36006KT 10SM CLR 18/05 A3018 RMK AO2 SLP217 T01830050
KRSW 111853Z VRB04KT 10SM CLR 18/06 A3019 RMK AO2 SLP221 T01780056
KRSW 111753Z 03007KT 10SM CLR 17/06 A3022 RMK AO2 SLP231 T01720056 10172 20050 58028
KRSW 111653Z 36007KT 10SM CLR 16/07 A3027 RMK AO2 SLP246 T01610067
KRSW 111553Z VRB05KT 10SM CLR 14/06 A3029 RMK AO2 SLP253 T01390061
KRSW 111510Z VRB06KT 10SM FEW002 13/06 A3030 RMK AO2 T01280056
KRSW 111453Z 06007KT 10SM CLR 12/06 A3030 RMK AO2 SLP259 T01220056 50002
KRSW 111353Z 07005KT 10SM CLR 09/06 A3031 RMK AO2 SLP261 T00940056
KRSW 111253Z 04006KT 10SM CLR 07/03 A3030 RMK AO2 SLP259 T00720033
KRSW 111219Z 04005KT 10SM FEW002 06/03 A3030 RMK AO2 T00560033
KRSW 111153Z 05005KT 10SM CLR 05/03 A3030 RMK AO2 SLP256 T00500033 10078 20050 53006
KRSW 111053Z 09004KT 10SM CLR 06/04 A3029 RMK AO2 SLP255 T00560039
KRSW 110953Z 04004KT 10SM CLR 06/04 A3027 RMK AO2 SLP249 T00560039
KRSW 110853Z 05004KT 10SM CLR 06/04 A3028 RMK AO2 SLP250 T00610039 56008
KRSW 110753Z 02004KT 10SM CLR 07/03 A3029 RMK AO2 SLP253 T00720033
KRSW 110653Z 35004KT 10SM CLR 07/03 A3029 RMK AO2 SLP254 T00720028
KRSW 110553Z 01005KT 10SM CLR 08/03 A3030 RMK AO2 SLP259 T00780028 10117 20078 58008
KRSW 110453Z 36005KT 10SM CLR 08/03 A3032 RMK AO2 SLP264 T00830033 401560067
KRSW 110353Z AUTO 35004KT 10SM CLR 09/03 A3033 RMK AO2 SLP267 T00890033
KRSW 110253Z AUTO 01003KT 10SM CLR 09/05 A3033 RMK AO2 SLP267 T00940050 51014